Carthage, Missouri
Current Conditions -  °F | °C
As of 7:53 AM on Monday 22 Dec 2014 (Local Time) from KJLN Reporting Station
Overcast Overcast  
Wind Chill: 42°   Ceiling: 2200
Heat Index: 46°   Visibility: 10mi
Dew Point: 43°   Wind: 7mph
Humidity: 89%   Direction: 140°SE
Pressure: 29.61"   Gusts: NA
Location:  37.18°N, 94.31°W
Report Text: KJLN 221353Z 14006KT 10SM BKN022 OVC033 08/06 A2961 RMK AO2 SLP027 T00780061 $
Loading
Personal Weather Stations






























Interactive Weather Map New forecast layout! Learn more

10-Day Weather Forecast

Advertisements
Track Severe Weather on mobile